createdAt,value
2023-02-02T00:02:57.244Z,7.07
2023-02-02T00:05:59.716Z,6.40
2023-02-02T00:09:03.154Z,2.05
2023-02-02T00:12:05.614Z,3.55
2023-02-02T00:15:08.551Z,2.00
2023-02-02T00:18:10.938Z,4.13
2023-02-02T00:21:13.342Z,5.75
2023-02-02T00:24:18.194Z,4.57
2023-02-02T00:27:20.731Z,3.67
2023-02-02T00:30:23.284Z,2.90
2023-02-02T00:33:25.747Z,2.33
2023-02-02T00:36:28.150Z,1.83
2023-02-02T00:39:30.712Z,1.63
2023-02-02T00:42:33.833Z,2.92
2023-02-02T00:45:38.126Z,6.13
2023-02-02T00:48:40.548Z,3.17
2023-02-02T00:51:43.057Z,4.28
2023-02-02T00:54:45.481Z,2.72
2023-02-02T00:57:48.063Z,4.35
2023-02-02T01:00:50.717Z,2.90
2023-02-02T01:03:53.458Z,2.95
2023-02-02T01:06:55.865Z,2.15
2023-02-02T01:09:58.372Z,3.55
2023-02-02T01:13:01.085Z,2.97
2023-02-02T01:16:04.621Z,2.30
2023-02-02T01:19:07.256Z,6.88
2023-02-02T01:22:09.785Z,7.00
2023-02-02T01:25:12.280Z,9.07
2023-02-02T01:28:14.692Z,10.02
2023-02-02T01:31:18.945Z,5.57
2023-02-02T01:34:21.549Z,5.53
2023-02-02T01:37:24.085Z,2.55
2023-02-02T01:40:26.575Z,6.70
2023-02-02T01:43:45.308Z,3.53
2023-02-02T01:46:47.725Z,1.70
2023-02-02T01:49:50.687Z,1.98
2023-02-02T01:52:55.539Z,3.05
2023-02-02T01:55:58.404Z,6.03
2023-02-02T01:59:01.348Z,3.05
2023-02-02T02:02:03.910Z,8.23
2023-02-02T02:05:08.340Z,7.30
2023-02-02T02:08:22.188Z,3.60
2023-02-02T02:11:25.207Z,4.13
2023-02-02T02:14:46.784Z,3.17
2023-02-02T02:18:28.687Z,6.47
2023-02-02T02:21:57.217Z,4.35
2023-02-02T02:25:36.769Z,2.45
2023-02-02T02:29:01.054Z,2.80
2023-02-02T02:32:27.353Z,2.28
2023-02-02T02:36:02.924Z,1.47
2023-02-02T02:39:14.963Z,6.13
2023-02-02T02:42:21.307Z,3.08
2023-02-02T02:45:27.145Z,6.15
2023-02-02T02:48:31.287Z,6.65
2023-02-02T02:51:53.199Z,7.40
2023-02-02T02:55:01.572Z,12.05
2023-02-02T02:58:10.026Z,10.10
2023-02-02T03:01:21.785Z,5.35
2023-02-02T03:04:51.363Z,3.13
2023-02-02T03:08:12.172Z,14.00
2023-02-02T03:11:15.442Z,5.72
2023-02-02T03:14:17.780Z,7.88
2023-02-02T03:17:20.225Z,3.25
2023-02-02T03:20:22.781Z,6.15
2023-02-02T03:23:25.689Z,6.43
2023-02-02T03:26:28.169Z,7.38
2023-02-02T03:29:30.754Z,4.10
2023-02-02T03:32:33.445Z,2.55
2023-02-02T03:35:35.810Z,3.95
2023-02-02T03:38:38.465Z,2.90
2023-02-02T03:41:40.898Z,2.95
2023-02-02T03:44:43.293Z,2.97
2023-02-02T03:47:45.736Z,4.53
2023-02-02T03:50:48.237Z,3.90
2023-02-02T03:53:50.649Z,4.03
2023-02-02T03:56:53.057Z,5.25
2023-02-02T03:59:55.700Z,6.45
2023-02-02T04:02:58.171Z,3.85
2023-02-02T04:06:00.946Z,5.95
2023-02-02T04:09:03.551Z,2.87
2023-02-02T04:12:06.135Z,4.93
2023-02-02T04:15:09.086Z,8.27
2023-02-02T04:18:11.690Z,14.85
2023-02-02T04:21:14.065Z,4.35
2023-02-02T04:24:16.527Z,3.43
2023-02-02T04:27:18.926Z,5.40
2023-02-02T04:30:22.079Z,4.22
2023-02-02T04:33:26.394Z,10.13
2023-02-02T04:36:28.909Z,6.43
2023-02-02T04:39:31.515Z,11.20
2023-02-02T04:42:35.091Z,16.58
2023-02-02T04:45:37.865Z,10.65
2023-02-02T04:48:43.678Z,8.10
2023-02-02T04:51:46.263Z,7.10
2023-02-02T04:54:48.708Z,6.97
2023-02-02T04:57:51.214Z,11.60
2023-02-02T05:00:53.770Z,12.30
2023-02-02T05:03:56.435Z,20.77
2023-02-02T05:06:58.836Z,17.05
2023-02-02T05:10:01.382Z,16.77
2023-02-02T05:13:03.769Z,27.92
2023-02-02T05:16:07.127Z,29.58
2023-02-02T05:19:11.218Z,35.95
2023-02-02T05:22:13.663Z,11.52
2023-02-02T05:25:16.289Z,9.27
2023-02-02T05:28:18.926Z,30.55
2023-02-02T05:31:21.767Z,44.38
2023-02-02T05:34:24.292Z,72.47
2023-02-02T05:37:26.858Z,38.13
2023-02-02T05:40:29.484Z,18.97
2023-02-02T05:43:32.696Z,15.27
2023-02-02T05:46:35.177Z,13.25
2023-02-02T05:49:37.605Z,15.05
2023-02-02T05:52:40.842Z,13.65
2023-02-02T05:55:43.327Z,16.20
2023-02-02T05:58:48.137Z,19.10
2023-02-02T06:01:50.599Z,28.02
2023-02-02T06:04:52.972Z,21.52
2023-02-02T06:07:55.421Z,30.20
2023-02-02T06:10:57.942Z,25.13
2023-02-02T06:14:00.538Z,25.40
2023-02-02T06:17:03.013Z,18.45
2023-02-02T06:20:05.971Z,38.83
2023-02-02T06:23:08.526Z,31.73
2023-02-02T06:26:11.804Z,26.50
2023-02-02T06:29:14.504Z,27.50
2023-02-02T06:32:17.069Z,19.50
2023-02-02T06:35:19.838Z,15.57
2023-02-02T06:38:22.417Z,19.95
2023-02-02T06:41:25.643Z,15.90
2023-02-02T06:44:28.074Z,21.33
2023-02-02T06:47:32.863Z,23.50
2023-02-02T06:50:35.415Z,21.38
2023-02-02T06:53:37.887Z,14.45
2023-02-02T06:56:40.503Z,16.67
2023-02-02T06:59:43.074Z,17.05
2023-02-02T07:02:47.064Z,19.08
2023-02-02T07:05:49.725Z,60.25
2023-02-02T07:09:02.520Z,95.28
2023-02-02T07:12:06.231Z,67.27
2023-02-02T07:15:09.249Z,41.95
2023-02-02T07:18:11.734Z,46.17
2023-02-02T07:21:22.437Z,41.42
2023-02-02T07:24:25.136Z,34.03
2023-02-02T07:27:27.652Z,92.53
2023-02-02T07:30:30.189Z,69.22
2023-02-02T07:33:32.573Z,81.78
2023-02-02T07:36:35.220Z,78.90
2023-02-02T07:39:37.704Z,84.97
2023-02-02T07:42:40.398Z,67.03
2023-02-02T07:45:43.326Z,66.63
2023-02-02T07:48:45.953Z,55.53
2023-02-02T07:51:49.382Z,46.38
2023-02-02T07:54:57.673Z,29.38
2023-02-02T07:58:04.994Z,30.63
2023-02-02T08:01:09.516Z,17.38
2023-02-02T08:04:12.362Z,12.57
2023-02-02T08:07:15.168Z,7.28
2023-02-02T08:10:17.817Z,4.93
2023-02-02T08:13:20.968Z,3.90
2023-02-02T08:16:24.199Z,6.72
2023-02-02T08:19:27.017Z,6.95
2023-02-02T08:22:29.516Z,7.43
2023-02-02T08:25:31.912Z,13.82
2023-02-02T08:28:36.399Z,4.37
2023-02-02T08:31:43.019Z,2.70
2023-02-02T08:34:48.736Z,5.90
2023-02-02T08:37:51.180Z,2.85
2023-02-02T08:40:53.679Z,2.63
2023-02-02T08:43:56.162Z,4.43
2023-02-02T08:46:58.857Z,6.72
2023-02-02T08:50:01.469Z,9.65
2023-02-02T08:53:04.510Z,9.75
2023-02-02T08:56:13.394Z,4.45
2023-02-02T08:59:16.157Z,9.80
2023-02-02T09:02:19.084Z,15.93
2023-02-02T09:05:21.614Z,4.53
2023-02-02T09:08:24.155Z,7.50
2023-02-02T09:11:27.000Z,9.18
2023-02-02T09:14:29.862Z,7.33
2023-02-02T09:17:32.326Z,24.30
2023-02-02T09:20:35.070Z,13.05
2023-02-02T09:23:39.812Z,7.25
2023-02-02T09:26:43.386Z,4.60
2023-02-02T09:29:45.941Z,8.20
2023-02-02T09:32:51.319Z,6.20
2023-02-02T09:35:53.756Z,4.07
2023-02-02T09:38:56.544Z,1.58
2023-02-02T09:42:13.745Z,5.22
2023-02-02T09:45:26.722Z,14.40
2023-02-02T09:48:38.911Z,3.17
2023-02-02T09:51:46.596Z,4.07
2023-02-02T09:54:50.809Z,1.05
2023-02-02T09:57:56.118Z,0.95
2023-02-02T10:01:18.461Z,2.13
2023-02-02T10:04:27.999Z,2.40
2023-02-02T10:07:37.824Z,3.22
2023-02-02T10:10:43.444Z,1.13
2023-02-02T10:13:46.203Z,1.50
2023-02-02T10:16:49.682Z,1.43
2023-02-02T10:19:55.752Z,1.10
2023-02-02T10:23:03.217Z,1.55
2023-02-02T10:26:21.671Z,0.85
2023-02-02T10:29:47.999Z,1.45
2023-02-02T10:33:26.013Z,3.93
2023-02-02T10:36:49.934Z,2.90
2023-02-02T10:40:22.843Z,3.40
2023-02-02T10:43:51.774Z,2.88
2023-02-02T10:46:56.505Z,2.85
2023-02-02T10:50:15.211Z,1.20
2023-02-02T10:53:17.714Z,4.20
2023-02-02T10:56:35.450Z,0.40
2023-02-02T10:59:57.402Z,2.90
2023-02-02T11:03:04.529Z,0.95
2023-02-02T11:06:26.522Z,7.07
2023-02-02T11:09:37.282Z,7.97
2023-02-02T11:12:46.792Z,2.40
2023-02-02T11:15:49.377Z,2.22
2023-02-02T11:18:51.914Z,5.82
2023-02-02T11:21:59.170Z,1.00
2023-02-02T11:25:04.615Z,4.28
2023-02-02T11:28:18.789Z,5.18
2023-02-02T11:31:35.441Z,7.88
2023-02-02T11:34:37.988Z,3.85
2023-02-02T11:37:57.928Z,8.30
2023-02-02T11:41:09.230Z,5.38
2023-02-02T11:44:25.750Z,3.80
2023-02-02T11:47:30.540Z,1.85
2023-02-02T11:50:33.760Z,2.40
2023-02-02T11:53:47.172Z,5.10
2023-02-02T11:56:52.150Z,6.32
2023-02-02T12:00:16.043Z,7.15
2023-02-02T12:03:44.782Z,5.25
2023-02-02T12:06:47.274Z,1.95
2023-02-02T12:09:50.455Z,4.97
2023-02-02T12:12:59.844Z,5.13
2023-02-02T12:16:02.318Z,8.38
2023-02-02T12:19:30.133Z,9.70
2023-02-02T12:22:44.722Z,9.43
2023-02-02T12:25:59.348Z,6.03
2023-02-02T12:29:17.426Z,2.20
2023-02-02T12:32:25.824Z,3.35
2023-02-02T12:35:41.479Z,7.35
2023-02-02T12:39:14.885Z,9.25
2023-02-02T12:42:25.285Z,7.53
2023-02-02T12:45:33.911Z,7.03
2023-02-02T12:49:00.748Z,4.70
2023-02-02T12:52:16.265Z,4.95
2023-02-02T12:55:42.998Z,4.70
2023-02-02T12:58:56.284Z,2.30
2023-02-02T13:02:40.696Z,3.85
2023-02-02T13:05:55.328Z,6.57
2023-02-02T13:09:20.539Z,3.17
2023-02-02T13:12:24.022Z,3.70
2023-02-02T13:15:36.341Z,3.53
2023-02-02T13:18:51.986Z,2.75
2023-02-02T13:21:56.605Z,3.58
2023-02-02T13:25:01.319Z,3.20
2023-02-02T13:28:06.846Z,3.80
2023-02-02T13:31:18.137Z,7.13
2023-02-02T13:34:24.022Z,2.90
2023-02-02T13:37:54.291Z,2.40
2023-02-02T13:40:59.818Z,3.95
2023-02-02T13:44:02.381Z,4.50
2023-02-02T13:47:10.284Z,6.27
2023-02-02T13:50:16.920Z,6.93
2023-02-02T13:53:42.159Z,17.55
2023-02-02T13:57:04.801Z,6.03
2023-02-02T14:00:24.915Z,5.78
2023-02-02T14:03:38.904Z,4.33
2023-02-02T14:06:59.362Z,3.75
2023-02-02T14:10:01.826Z,4.75
2023-02-02T14:13:36.282Z,3.13
2023-02-02T14:16:38.573Z,4.88
2023-02-02T14:19:43.735Z,6.33
2023-02-02T14:22:48.416Z,5.00
2023-02-02T14:26:05.302Z,6.78
2023-02-02T14:29:31.295Z,9.05
2023-02-02T14:32:42.316Z,4.18
2023-02-02T14:35:44.659Z,5.20
2023-02-02T14:38:56.441Z,5.10
2023-02-02T14:42:36.823Z,6.00
2023-02-02T14:45:43.433Z,9.15
2023-02-02T14:48:57.156Z,7.13
2023-02-02T14:52:01.497Z,7.23
2023-02-02T14:55:04.343Z,6.80
2023-02-02T14:58:07.268Z,10.30
2023-02-02T15:01:32.692Z,5.07
2023-02-02T15:04:35.352Z,14.85
2023-02-02T15:07:52.070Z,16.53
2023-02-02T15:11:23.786Z,11.77
2023-02-02T15:14:30.717Z,11.68
2023-02-02T15:17:39.030Z,16.10
2023-02-02T15:20:49.887Z,6.55
2023-02-02T15:23:52.364Z,5.43
2023-02-02T15:26:55.793Z,6.13
2023-02-02T15:30:03.810Z,8.45
2023-02-02T15:33:23.786Z,3.38
2023-02-02T15:36:29.239Z,5.03
2023-02-02T15:39:35.057Z,7.37
2023-02-02T15:42:55.185Z,9.63
2023-02-02T15:46:10.487Z,18.67
2023-02-02T15:49:33.193Z,18.73
2023-02-02T15:52:46.629Z,19.30
2023-02-02T15:55:49.562Z,33.37
2023-02-02T15:58:54.952Z,20.33
2023-02-02T16:02:06.673Z,20.40
2023-02-02T16:05:31.169Z,22.60
2023-02-02T16:08:36.312Z,15.95
2023-02-02T16:11:42.287Z,14.00
2023-02-02T16:14:49.753Z,13.30
2023-02-02T16:18:03.546Z,14.25
2023-02-02T16:21:11.452Z,15.07
2023-02-02T16:24:29.682Z,20.92
2023-02-02T16:27:32.807Z,20.50
2023-02-02T16:30:38.028Z,21.50
2023-02-02T16:33:46.545Z,29.25
2023-02-02T16:37:28.130Z,32.70
2023-02-02T16:40:30.793Z,39.75
2023-02-02T16:43:34.394Z,32.53
2023-02-02T16:46:48.420Z,27.80
2023-02-02T16:50:10.104Z,26.90
2023-02-02T16:53:21.743Z,41.28
2023-02-02T16:56:27.895Z,52.10
2023-02-02T16:59:33.597Z,46.27
2023-02-02T17:02:39.166Z,51.05
2023-02-02T17:05:51.952Z,53.78
2023-02-02T17:08:56.408Z,46.35
2023-02-02T17:12:32.128Z,38.22
2023-02-02T17:15:36.822Z,30.50
2023-02-02T17:18:39.741Z,31.55
2023-02-02T17:21:42.419Z,34.17
2023-02-02T17:24:47.528Z,31.70
2023-02-02T17:27:50.056Z,26.88
2023-02-02T17:31:13.595Z,27.57
2023-02-02T17:34:16.120Z,23.75
2023-02-02T17:37:18.509Z,22.20
2023-02-02T17:40:22.595Z,15.80
2023-02-02T17:43:27.037Z,16.67
2023-02-02T17:46:31.098Z,14.27
2023-02-02T17:49:33.835Z,11.63
2023-02-02T17:52:39.538Z,11.98
2023-02-02T17:55:43.229Z,7.82
2023-02-02T17:58:45.881Z,11.30
2023-02-02T18:01:48.738Z,8.03
2023-02-02T18:04:51.518Z,4.78
2023-02-02T18:07:54.931Z,7.95
2023-02-02T18:10:59.529Z,7.32
2023-02-02T18:14:02.705Z,4.72
2023-02-02T18:17:05.124Z,11.73
2023-02-02T18:20:08.245Z,9.23
2023-02-02T18:23:11.422Z,5.88
2023-02-02T18:26:19.707Z,11.55
2023-02-02T18:29:22.622Z,7.85
2023-02-02T18:32:25.394Z,9.07
2023-02-02T18:35:28.418Z,2.95
2023-02-02T18:38:31.040Z,6.35
2023-02-02T18:41:33.897Z,3.03
2023-02-02T18:44:38.434Z,3.83
2023-02-02T18:47:41.644Z,3.70
2023-02-02T18:50:44.324Z,3.83
2023-02-02T18:53:47.471Z,5.13
2023-02-02T18:56:50.160Z,8.10
2023-02-02T18:59:53.017Z,2.78
2023-02-02T19:02:55.545Z,4.30
2023-02-02T19:06:16.231Z,5.18
2023-02-02T19:09:18.736Z,5.68
2023-02-02T19:12:26.814Z,9.80
2023-02-02T19:15:33.123Z,10.75
2023-02-02T19:18:35.667Z,28.27
2023-02-02T19:21:41.426Z,110.25
2023-02-02T19:24:44.072Z,40.63
2023-02-02T19:27:46.580Z,11.98
2023-02-02T19:30:50.758Z,12.05
2023-02-02T19:33:53.813Z,67.47
2023-02-02T19:36:56.487Z,50.72
2023-02-02T19:40:13.638Z,29.65
2023-02-02T19:43:24.569Z,13.15
2023-02-02T19:46:29.292Z,10.10
2023-02-02T19:49:35.080Z,9.67
2023-02-02T19:52:37.759Z,21.85
2023-02-02T19:55:40.652Z,34.05
2023-02-02T19:58:43.367Z,19.02
2023-02-02T20:01:47.887Z,7.53
2023-02-02T20:05:02.689Z,17.97
2023-02-02T20:08:26.615Z,14.18
2023-02-02T20:11:41.021Z,13.40
2023-02-02T20:14:43.851Z,70.85
2023-02-02T20:17:46.555Z,76.22
2023-02-02T20:20:52.830Z,89.37
2023-02-02T20:23:55.684Z,68.00
2023-02-02T20:27:02.587Z,29.20
2023-02-02T20:30:30.927Z,27.65
2023-02-02T20:33:34.000Z,33.72
2023-02-02T20:36:41.078Z,22.27
2023-02-02T20:40:01.529Z,27.35
2023-02-02T20:43:04.678Z,27.73
2023-02-02T20:46:07.262Z,23.88
2023-02-02T20:49:10.033Z,26.67
2023-02-02T20:52:21.355Z,22.30
2023-02-02T20:55:24.055Z,29.73
2023-02-02T20:58:26.868Z,23.83
2023-02-02T21:01:31.311Z,7.35
2023-02-02T21:04:34.379Z,6.10
2023-02-02T21:07:37.171Z,5.33
2023-02-02T21:10:41.191Z,4.78
2023-02-02T21:13:43.590Z,16.35
2023-02-02T21:16:46.318Z,8.57
2023-02-02T21:19:49.061Z,4.80
2023-02-02T21:22:51.731Z,6.20
2023-02-02T21:25:54.408Z,9.75
2023-02-02T21:28:58.326Z,7.93
2023-02-02T21:32:02.768Z,6.65
2023-02-02T21:35:06.623Z,6.70
2023-02-02T21:38:14.491Z,5.90
2023-02-02T21:41:16.855Z,6.72
2023-02-02T21:44:21.471Z,7.80
2023-02-02T21:47:30.324Z,8.00
2023-02-02T21:50:36.089Z,5.85
2023-02-02T21:53:38.432Z,6.30
2023-02-02T21:56:42.109Z,7.53
2023-02-02T21:59:46.794Z,6.57
2023-02-02T22:02:51.090Z,30.10
2023-02-02T22:06:19.210Z,35.65
2023-02-02T22:09:26.972Z,14.93
2023-02-02T22:12:30.037Z,12.93
2023-02-02T22:15:34.541Z,9.65
2023-02-02T22:18:37.002Z,8.27
2023-02-02T22:21:39.411Z,9.95
2023-02-02T22:24:58.697Z,10.83
2023-02-02T22:28:23.089Z,7.50
2023-02-02T22:31:25.870Z,12.15
2023-02-02T22:34:28.631Z,11.82
2023-02-02T22:37:31.073Z,11.10
2023-02-02T22:40:33.531Z,9.40
2023-02-02T22:43:35.991Z,11.68
2023-02-02T22:46:38.515Z,8.18
2023-02-02T22:49:41.192Z,15.90
2023-02-02T22:52:43.893Z,14.23
2023-02-02T22:55:46.373Z,18.60
2023-02-02T22:58:48.824Z,20.60
2023-02-02T23:01:51.251Z,16.98
2023-02-02T23:04:53.767Z,19.10
2023-02-02T23:07:56.320Z,24.35
2023-02-02T23:10:59.062Z,21.20
2023-02-02T23:14:01.436Z,27.40
2023-02-02T23:17:03.943Z,25.70
2023-02-02T23:20:09.245Z,25.50
2023-02-02T23:23:11.691Z,10.57
2023-02-02T23:26:14.136Z,8.77
2023-02-02T23:29:16.673Z,10.93
2023-02-02T23:32:19.221Z,9.45
2023-02-02T23:35:21.620Z,5.78
2023-02-02T23:38:24.033Z,6.68
2023-02-02T23:41:26.610Z,6.00
2023-02-02T23:44:29.079Z,4.95
2023-02-02T23:47:33.885Z,4.15
2023-02-02T23:50:39.903Z,10.20
2023-02-02T23:53:42.778Z,4.47
2023-02-02T23:56:45.268Z,3.93
2023-02-02T23:59:47.902Z,5.82
